sensor_id;sensor_type;location;lat;lon;timestamp;temperature;humidity
22968;DHT22;11650;48.106;-1.696;2023-04-16T00:01:38;9.10;99.90
22968;DHT22;11650;48.106;-1.696;2023-04-16T00:04:04;9.10;99.90
22968;DHT22;11650;48.106;-1.696;2023-04-16T00:06:32;9.10;99.90
22968;DHT22;11650;48.106;-1.696;2023-04-16T00:08:58;9.10;99.90
22968;DHT22;11650;48.106;-1.696;2023-04-16T00:11:23;9.10;99.90
22968;DHT22;11650;48.106;-1.696;2023-04-16T00:13:49;9.00;99.90
22968;DHT22;11650;48.106;-1.696;2023-04-16T00:16:15;9.00;99.90
22968;DHT22;11650;48.106;-1.696;2023-04-16T00:18:40;9.00;99.90
22968;DHT22;11650;48.106;-1.696;2023-04-16T00:21:06;9.00;99.90
22968;DHT22;11650;48.106;-1.696;2023-04-16T00:23:32;8.90;99.90
22968;DHT22;11650;48.106;-1.696;2023-04-16T00:25:58;8.80;99.90
22968;DHT22;11650;48.106;-1.696;2023-04-16T00:28:26;8.90;99.90
22968;DHT22;11650;48.106;-1.696;2023-04-16T00:30:52;9.00;99.90
22968;DHT22;11650;48.106;-1.696;2023-04-16T00:33:18;8.90;99.90
22968;DHT22;11650;48.106;-1.696;2023-04-16T00:35:47;8.90;99.90
22968;DHT22;11650;48.106;-1.696;2023-04-16T00:38:13;8.70;99.90
22968;DHT22;11650;48.106;-1.696;2023-04-16T00:40:39;8.70;99.90
22968;DHT22;11650;48.106;-1.696;2023-04-16T00:43:05;8.70;99.90
22968;DHT22;11650;48.106;-1.696;2023-04-16T00:45:30;8.60;99.90
22968;DHT22;11650;48.106;-1.696;2023-04-16T00:47:57;8.60;99.90
22968;DHT22;11650;48.106;-1.696;2023-04-16T00:50:23;8.50;99.90
22968;DHT22;11650;48.106;-1.696;2023-04-16T00:52:49;8.50;99.90
22968;DHT22;11650;48.106;-1.696;2023-04-16T00:55:15;8.50;99.90
22968;DHT22;11650;48.106;-1.696;2023-04-16T00:57:43;8.60;99.90
22968;DHT22;11650;48.106;-1.696;2023-04-16T01:00:09;8.70;99.90
22968;DHT22;11650;48.106;-1.696;2023-04-16T01:02:35;8.70;99.90
22968;DHT22;11650;48.106;-1.696;2023-04-16T01:05:01;8.70;99.90
22968;DHT22;11650;48.106;-1.696;2023-04-16T01:07:27;8.80;99.90
22968;DHT22;11650;48.106;-1.696;2023-04-16T01:09:53;8.90;99.90
22968;DHT22;11650;48.106;-1.696;2023-04-16T01:12:19;8.80;99.90
22968;DHT22;11650;48.106;-1.696;2023-04-16T01:14:44;8.70;99.90
22968;DHT22;11650;48.106;-1.696;2023-04-16T01:17:10;8.70;99.90
22968;DHT22;11650;48.106;-1.696;2023-04-16T01:19:36;8.70;99.90
22968;DHT22;11650;48.106;-1.696;2023-04-16T01:22:03;8.70;99.90
22968;DHT22;11650;48.106;-1.696;2023-04-16T01:24:29;8.70;99.90
22968;DHT22;11650;48.106;-1.696;2023-04-16T01:26:57;8.70;99.90
22968;DHT22;11650;48.106;-1.696;2023-04-16T01:29:23;8.70;99.90
22968;DHT22;11650;48.106;-1.696;2023-04-16T01:31:49;8.60;99.90
22968;DHT22;11650;48.106;-1.696;2023-04-16T01:34:15;8.50;99.90
22968;DHT22;11650;48.106;-1.696;2023-04-16T01:36:40;8.40;99.90
22968;DHT22;11650;48.106;-1.696;2023-04-16T01:39:06;8.50;99.90
22968;DHT22;11650;48.106;-1.696;2023-04-16T01:41:33;8.60;99.90
22968;DHT22;11650;48.106;-1.696;2023-04-16T01:44:00;8.60;99.90
22968;DHT22;11650;48.106;-1.696;2023-04-16T01:46:27;8.60;99.90
22968;DHT22;11650;48.106;-1.696;2023-04-16T01:48:56;8.70;99.90
22968;DHT22;11650;48.106;-1.696;2023-04-16T01:51:22;8.60;99.90
22968;DHT22;11650;48.106;-1.696;2023-04-16T01:53:49;8.60;99.90
22968;DHT22;11650;48.106;-1.696;2023-04-16T01:56:15;8.60;99.90
22968;DHT22;11650;48.106;-1.696;2023-04-16T01:58:41;8.60;99.90
22968;DHT22;11650;48.106;-1.696;2023-04-16T02:01:07;8.60;99.90
22968;DHT22;11650;48.106;-1.696;2023-04-16T02:03:33;8.60;99.90
22968;DHT22;11650;48.106;-1.696;2023-04-16T02:05:59;8.60;99.90
22968;DHT22;11650;48.106;-1.696;2023-04-16T02:08:26;8.50;99.90
22968;DHT22;11650;48.106;-1.696;2023-04-16T02:10:52;8.40;99.90
22968;DHT22;11650;48.106;-1.696;2023-04-16T02:13:17;8.40;99.90
22968;DHT22;11650;48.106;-1.696;2023-04-16T02:15:47;8.30;99.90
22968;DHT22;11650;48.106;-1.696;2023-04-16T02:18:14;8.30;99.90
22968;DHT22;11650;48.106;-1.696;2023-04-16T02:20:44;8.20;99.90
22968;DHT22;11650;48.106;-1.696;2023-04-16T02:23:11;8.20;99.90
22968;DHT22;11650;48.106;-1.696;2023-04-16T02:25:38;8.20;99.90
22968;DHT22;11650;48.106;-1.696;2023-04-16T02:28:08;8.10;99.90
22968;DHT22;11650;48.106;-1.696;2023-04-16T02:30:35;8.00;99.90
22968;DHT22;11650;48.106;-1.696;2023-04-16T02:33:02;8.00;99.90
22968;DHT22;11650;48.106;-1.696;2023-04-16T02:35:30;7.90;99.90
22968;DHT22;11650;48.106;-1.696;2023-04-16T02:37:57;7.90;99.90
22968;DHT22;11650;48.106;-1.696;2023-04-16T02:40:22;7.90;99.90
22968;DHT22;11650;48.106;-1.696;2023-04-16T02:42:48;8.00;99.90
22968;DHT22;11650;48.106;-1.696;2023-04-16T02:45:14;8.00;99.90
22968;DHT22;11650;48.106;-1.696;2023-04-16T02:47:39;8.00;99.90
22968;DHT22;11650;48.106;-1.696;2023-04-16T02:50:05;8.00;99.90
22968;DHT22;11650;48.106;-1.696;2023-04-16T02:52:31;7.90;99.90
22968;DHT22;11650;48.106;-1.696;2023-04-16T02:54:58;7.90;99.90
22968;DHT22;11650;48.106;-1.696;2023-04-16T02:57:24;7.90;99.90
22968;DHT22;11650;48.106;-1.696;2023-04-16T02:59:49;7.80;99.90
22968;DHT22;11650;48.106;-1.696;2023-04-16T03:02:15;7.80;99.90
22968;DHT22;11650;48.106;-1.696;2023-04-16T03:04:41;7.80;99.90
22968;DHT22;11650;48.106;-1.696;2023-04-16T03:07:07;7.80;99.90
22968;DHT22;11650;48.106;-1.696;2023-04-16T03:09:34;7.80;99.90
22968;DHT22;11650;48.106;-1.696;2023-04-16T03:12:00;7.80;99.90
22968;DHT22;11650;48.106;-1.696;2023-04-16T03:14:27;7.80;99.90
22968;DHT22;11650;48.106;-1.696;2023-04-16T03:16:52;7.70;99.90
22968;DHT22;11650;48.106;-1.696;2023-04-16T03:19:18;7.70;99.90
22968;DHT22;11650;48.106;-1.696;2023-04-16T03:21:44;7.60;99.90
22968;DHT22;11650;48.106;-1.696;2023-04-16T03:24:09;7.60;99.90
22968;DHT22;11650;48.106;-1.696;2023-04-16T03:26:35;7.70;99.90
22968;DHT22;11650;48.106;-1.696;2023-04-16T03:29:01;7.60;99.90
22968;DHT22;11650;48.106;-1.696;2023-04-16T03:31:27;7.70;99.90
22968;DHT22;11650;48.106;-1.696;2023-04-16T03:33:53;7.70;99.90
22968;DHT22;11650;48.106;-1.696;2023-04-16T03:36:19;7.70;99.90
22968;DHT22;11650;48.106;-1.696;2023-04-16T03:38:44;7.70;99.90
22968;DHT22;11650;48.106;-1.696;2023-04-16T03:41:10;7.70;99.90
22968;DHT22;11650;48.106;-1.696;2023-04-16T03:43:36;7.60;99.90
22968;DHT22;11650;48.106;-1.696;2023-04-16T03:46:01;7.60;99.90
22968;DHT22;11650;48.106;-1.696;2023-04-16T03:48:27;7.70;99.90
22968;DHT22;11650;48.106;-1.696;2023-04-16T03:50:53;7.60;99.90
22968;DHT22;11650;48.106;-1.696;2023-04-16T03:53:18;7.70;99.90
22968;DHT22;11650;48.106;-1.696;2023-04-16T03:55:44;7.70;99.90
22968;DHT22;11650;48.106;-1.696;2023-04-16T03:58:09;7.60;99.90
22968;DHT22;11650;48.106;-1.696;2023-04-16T04:00:35;7.70;99.90
22968;DHT22;11650;48.106;-1.696;2023-04-16T04:03:01;7.70;99.90
22968;DHT22;11650;48.106;-1.696;2023-04-16T04:05:26;7.60;99.90
22968;DHT22;11650;48.106;-1.696;2023-04-16T04:07:52;7.60;99.90
22968;DHT22;11650;48.106;-1.696;2023-04-16T04:10:18;7.50;99.90
22968;DHT22;11650;48.106;-1.696;2023-04-16T04:12:43;7.40;99.90
22968;DHT22;11650;48.106;-1.696;2023-04-16T04:15:10;7.40;99.90
22968;DHT22;11650;48.106;-1.696;2023-04-16T04:17:36;7.40;99.90
22968;DHT22;11650;48.106;-1.696;2023-04-16T04:20:01;7.30;99.90
22968;DHT22;11650;48.106;-1.696;2023-04-16T04:22:27;7.30;99.90
22968;DHT22;11650;48.106;-1.696;2023-04-16T04:24:53;7.20;99.90
22968;DHT22;11650;48.106;-1.696;2023-04-16T04:27:18;7.20;99.90
22968;DHT22;11650;48.106;-1.696;2023-04-16T04:29:44;7.10;99.90
22968;DHT22;11650;48.106;-1.696;2023-04-16T04:32:09;7.00;99.90
22968;DHT22;11650;48.106;-1.696;2023-04-16T04:34:35;6.90;99.90
22968;DHT22;11650;48.106;-1.696;2023-04-16T04:37:01;6.80;99.90
22968;DHT22;11650;48.106;-1.696;2023-04-16T04:39:26;6.90;99.90
22968;DHT22;11650;48.106;-1.696;2023-04-16T04:41:52;6.90;99.90
22968;DHT22;11650;48.106;-1.696;2023-04-16T04:44:18;6.90;99.90
22968;DHT22;11650;48.106;-1.696;2023-04-16T04:46:43;7.00;99.90
22968;DHT22;11650;48.106;-1.696;2023-04-16T04:49:09;7.00;99.90
22968;DHT22;11650;48.106;-1.696;2023-04-16T04:51:35;7.00;99.90
22968;DHT22;11650;48.106;-1.696;2023-04-16T04:54:00;7.00;99.90
22968;DHT22;11650;48.106;-1.696;2023-04-16T04:56:26;7.10;99.90
22968;DHT22;11650;48.106;-1.696;2023-04-16T04:58:51;7.10;99.90
22968;DHT22;11650;48.106;-1.696;2023-04-16T05:01:17;7.10;99.90
22968;DHT22;11650;48.106;-1.696;2023-04-16T05:03:43;7.10;99.90
22968;DHT22;11650;48.106;-1.696;2023-04-16T05:06:08;7.00;99.90
22968;DHT22;11650;48.106;-1.696;2023-04-16T05:08:34;7.10;99.90
22968;DHT22;11650;48.106;-1.696;2023-04-16T05:11:00;7.00;99.90
22968;DHT22;11650;48.106;-1.696;2023-04-16T05:13:26;6.90;99.90
22968;DHT22;11650;48.106;-1.696;2023-04-16T05:15:52;6.90;99.90
22968;DHT22;11650;48.106;-1.696;2023-04-16T05:18:17;6.90;99.90
22968;DHT22;11650;48.106;-1.696;2023-04-16T05:20:43;7.00;99.90
22968;DHT22;11650;48.106;-1.696;2023-04-16T05:23:08;7.00;99.90
22968;DHT22;11650;48.106;-1.696;2023-04-16T05:25:34;6.90;99.90
22968;DHT22;11650;48.106;-1.696;2023-04-16T05:28:00;6.90;99.90
22968;DHT22;11650;48.106;-1.696;2023-04-16T05:30:26;6.80;99.90
22968;DHT22;11650;48.106;-1.696;2023-04-16T05:32:51;6.90;99.90
22968;DHT22;11650;48.106;-1.696;2023-04-16T05:35:17;6.90;99.90
22968;DHT22;11650;48.106;-1.696;2023-04-16T05:37:42;6.80;99.90
22968;DHT22;11650;48.106;-1.696;2023-04-16T05:40:08;6.80;99.90
22968;DHT22;11650;48.106;-1.696;2023-04-16T05:42:34;6.90;99.90
22968;DHT22;11650;48.106;-1.696;2023-04-16T05:45:01;7.00;99.90
22968;DHT22;11650;48.106;-1.696;2023-04-16T05:47:28;7.10;99.90
22968;DHT22;11650;48.106;-1.696;2023-04-16T05:49:54;7.10;99.90
22968;DHT22;11650;48.106;-1.696;2023-04-16T05:52:19;7.10;99.90
22968;DHT22;11650;48.106;-1.696;2023-04-16T05:54:45;7.10;99.90
22968;DHT22;11650;48.106;-1.696;2023-04-16T05:57:12;7.20;99.90
22968;DHT22;11650;48.106;-1.696;2023-04-16T05:59:38;7.30;99.90
22968;DHT22;11650;48.106;-1.696;2023-04-16T06:02:04;7.30;99.90
22968;DHT22;11650;48.106;-1.696;2023-04-16T06:04:29;7.30;99.90
22968;DHT22;11650;48.106;-1.696;2023-04-16T06:06:55;7.40;99.90
22968;DHT22;11650;48.106;-1.696;2023-04-16T06:09:21;7.50;99.90
22968;DHT22;11650;48.106;-1.696;2023-04-16T06:11:47;7.50;99.90
22968;DHT22;11650;48.106;-1.696;2023-04-16T06:14:12;7.50;99.90
22968;DHT22;11650;48.106;-1.696;2023-04-16T06:16:38;7.60;99.90
22968;DHT22;11650;48.106;-1.696;2023-04-16T06:19:03;7.60;99.90
22968;DHT22;11650;48.106;-1.696;2023-04-16T06:21:29;7.60;99.90
22968;DHT22;11650;48.106;-1.696;2023-04-16T06:23:56;7.60;99.90
22968;DHT22;11650;48.106;-1.696;2023-04-16T06:26:21;7.50;99.90
22968;DHT22;11650;48.106;-1.696;2023-04-16T06:28:47;7.70;99.90
22968;DHT22;11650;48.106;-1.696;2023-04-16T06:31:13;7.80;99.90
22968;DHT22;11650;48.106;-1.696;2023-04-16T06:33:39;7.80;99.90
22968;DHT22;11650;48.106;-1.696;2023-04-16T06:36:05;7.90;99.90
22968;DHT22;11650;48.106;-1.696;2023-04-16T06:38:30;8.00;99.90
22968;DHT22;11650;48.106;-1.696;2023-04-16T06:40:56;8.00;99.90
22968;DHT22;11650;48.106;-1.696;2023-04-16T06:43:22;8.00;99.90
22968;DHT22;11650;48.106;-1.696;2023-04-16T06:45:48;8.00;99.90
22968;DHT22;11650;48.106;-1.696;2023-04-16T06:48:14;8.10;99.90
22968;DHT22;11650;48.106;-1.696;2023-04-16T06:50:40;8.20;99.90
22968;DHT22;11650;48.106;-1.696;2023-04-16T06:53:06;8.30;99.90
22968;DHT22;11650;48.106;-1.696;2023-04-16T06:55:31;8.40;99.90
22968;DHT22;11650;48.106;-1.696;2023-04-16T06:57:57;8.50;99.90
22968;DHT22;11650;48.106;-1.696;2023-04-16T07:00:22;8.70;99.90
22968;DHT22;11650;48.106;-1.696;2023-04-16T07:02:48;8.90;99.90
22968;DHT22;11650;48.106;-1.696;2023-04-16T07:05:14;9.20;99.90
22968;DHT22;11650;48.106;-1.696;2023-04-16T07:07:42;9.20;99.90
22968;DHT22;11650;48.106;-1.696;2023-04-16T07:10:08;9.20;99.90
22968;DHT22;11650;48.106;-1.696;2023-04-16T07:12:34;9.20;99.90
22968;DHT22;11650;48.106;-1.696;2023-04-16T07:15:00;9.40;99.90
22968;DHT22;11650;48.106;-1.696;2023-04-16T07:17:25;9.20;99.90
22968;DHT22;11650;48.106;-1.696;2023-04-16T07:19:51;9.10;99.90
22968;DHT22;11650;48.106;-1.696;2023-04-16T07:22:17;9.10;99.90
22968;DHT22;11650;48.106;-1.696;2023-04-16T07:24:42;9.20;99.90
22968;DHT22;11650;48.106;-1.696;2023-04-16T07:27:08;9.20;99.90
22968;DHT22;11650;48.106;-1.696;2023-04-16T07:29:34;9.20;99.90
22968;DHT22;11650;48.106;-1.696;2023-04-16T07:31:59;9.40;99.90
22968;DHT22;11650;48.106;-1.696;2023-04-16T07:34:25;9.70;99.90
22968;DHT22;11650;48.106;-1.696;2023-04-16T07:36:51;9.70;99.90
22968;DHT22;11650;48.106;-1.696;2023-04-16T07:39:16;9.90;99.90
22968;DHT22;11650;48.106;-1.696;2023-04-16T07:41:42;10.00;99.90
22968;DHT22;11650;48.106;-1.696;2023-04-16T07:44:08;9.90;99.90
22968;DHT22;11650;48.106;-1.696;2023-04-16T07:46:34;10.20;99.90
22968;DHT22;11650;48.106;-1.696;2023-04-16T07:48:59;10.20;99.90
22968;DHT22;11650;48.106;-1.696;2023-04-16T07:51:25;10.40;99.90
22968;DHT22;11650;48.106;-1.696;2023-04-16T07:53:51;10.50;99.90
22968;DHT22;11650;48.106;-1.696;2023-04-16T07:56:17;10.70;99.90
22968;DHT22;11650;48.106;-1.696;2023-04-16T07:58:43;10.80;99.90
22968;DHT22;11650;48.106;-1.696;2023-04-16T08:01:08;10.90;99.90
22968;DHT22;11650;48.106;-1.696;2023-04-16T08:03:34;11.30;99.90
22968;DHT22;11650;48.106;-1.696;2023-04-16T08:05:59;11.50;99.90
22968;DHT22;11650;48.106;-1.696;2023-04-16T08:08:25;11.70;99.90
22968;DHT22;11650;48.106;-1.696;2023-04-16T08:10:51;11.70;99.90
22968;DHT22;11650;48.106;-1.696;2023-04-16T08:13:21;11.90;99.90
22968;DHT22;11650;48.106;-1.696;2023-04-16T08:15:47;12.00;99.90
22968;DHT22;11650;48.106;-1.696;2023-04-16T08:18:13;12.00;99.90
22968;DHT22;11650;48.106;-1.696;2023-04-16T08:20:40;12.00;99.90
22968;DHT22;11650;48.106;-1.696;2023-04-16T08:23:06;12.00;99.90
22968;DHT22;11650;48.106;-1.696;2023-04-16T08:25:31;12.30;99.90
22968;DHT22;11650;48.106;-1.696;2023-04-16T08:27:57;12.60;99.90
22968;DHT22;11650;48.106;-1.696;2023-04-16T08:30:23;12.80;99.90
22968;DHT22;11650;48.106;-1.696;2023-04-16T08:32:49;13.00;99.90
22968;DHT22;11650;48.106;-1.696;2023-04-16T08:35:15;13.10;99.90
22968;DHT22;11650;48.106;-1.696;2023-04-16T08:37:40;13.20;99.90
22968;DHT22;11650;48.106;-1.696;2023-04-16T08:40:06;13.20;99.90
22968;DHT22;11650;48.106;-1.696;2023-04-16T08:42:44;13.20;99.90
22968;DHT22;11650;48.106;-1.696;2023-04-16T08:45:17;13.30;99.90
22968;DHT22;11650;48.106;-1.696;2023-04-16T08:47:47;13.30;99.90
22968;DHT22;11650;48.106;-1.696;2023-04-16T08:50:21;13.40;99.90
22968;DHT22;11650;48.106;-1.696;2023-04-16T08:55:20;13.30;99.90
22968;DHT22;11650;48.106;-1.696;2023-04-16T08:57:50;13.50;99.90
22968;DHT22;11650;48.106;-1.696;2023-04-16T09:00:18;13.70;99.90
22968;DHT22;11650;48.106;-1.696;2023-04-16T09:02:44;13.90;99.90
22968;DHT22;11650;48.106;-1.696;2023-04-16T09:05:13;14.20;99.90
22968;DHT22;11650;48.106;-1.696;2023-04-16T09:07:45;14.30;99.90
22968;DHT22;11650;48.106;-1.696;2023-04-16T09:10:11;14.60;99.90
22968;DHT22;11650;48.106;-1.696;2023-04-16T09:12:40;14.50;99.90
22968;DHT22;11650;48.106;-1.696;2023-04-16T09:15:08;14.50;99.90
22968;DHT22;11650;48.106;-1.696;2023-04-16T09:17:34;14.50;99.90
22968;DHT22;11650;48.106;-1.696;2023-04-16T09:20:00;14.60;99.90
22968;DHT22;11650;48.106;-1.696;2023-04-16T09:22:26;14.70;99.90
22968;DHT22;11650;48.106;-1.696;2023-04-16T09:24:51;14.90;99.90
22968;DHT22;11650;48.106;-1.696;2023-04-16T09:27:17;15.00;99.90
22968;DHT22;11650;48.106;-1.696;2023-04-16T09:29:43;15.10;99.90
22968;DHT22;11650;48.106;-1.696;2023-04-16T09:32:10;15.30;99.90
22968;DHT22;11650;48.106;-1.696;2023-04-16T09:34:59;15.30;99.90
22968;DHT22;11650;48.106;-1.696;2023-04-16T09:37:29;15.40;99.90
22968;DHT22;11650;48.106;-1.696;2023-04-16T09:39:59;15.10;99.90
22968;DHT22;11650;48.106;-1.696;2023-04-16T09:42:32;15.40;99.90
22968;DHT22;11650;48.106;-1.696;2023-04-16T09:44:59;15.10;99.90
22968;DHT22;11650;48.106;-1.696;2023-04-16T09:47:37;15.30;99.90
22968;DHT22;11650;48.106;-1.696;2023-04-16T09:50:02;15.50;99.90
22968;DHT22;11650;48.106;-1.696;2023-04-16T09:52:28;15.80;99.90
22968;DHT22;11650;48.106;-1.696;2023-04-16T09:54:54;16.00;99.90
22968;DHT22;11650;48.106;-1.696;2023-04-16T09:57:21;16.30;99.90
22968;DHT22;11650;48.106;-1.696;2023-04-16T10:00:08;16.20;99.90
22968;DHT22;11650;48.106;-1.696;2023-04-16T10:02:34;15.90;99.90
22968;DHT22;11650;48.106;-1.696;2023-04-16T10:05:01;15.70;99.90
22968;DHT22;11650;48.106;-1.696;2023-04-16T10:07:34;15.50;99.90
22968;DHT22;11650;48.106;-1.696;2023-04-16T10:10:00;15.40;99.90
22968;DHT22;11650;48.106;-1.696;2023-04-16T10:12:28;15.80;99.90
22968;DHT22;11650;48.106;-1.696;2023-04-16T10:14:54;15.60;99.90
22968;DHT22;11650;48.106;-1.696;2023-04-16T10:17:20;15.60;99.90
22968;DHT22;11650;48.106;-1.696;2023-04-16T10:19:46;16.00;99.90
22968;DHT22;11650;48.106;-1.696;2023-04-16T10:22:12;15.70;99.90
22968;DHT22;11650;48.106;-1.696;2023-04-16T10:24:38;15.60;99.90
22968;DHT22;11650;48.106;-1.696;2023-04-16T10:27:05;15.80;99.90
22968;DHT22;11650;48.106;-1.696;2023-04-16T10:29:32;15.80;99.90
22968;DHT22;11650;48.106;-1.696;2023-04-16T10:31:58;15.90;99.90
22968;DHT22;11650;48.106;-1.696;2023-04-16T10:34:26;15.80;99.90
22968;DHT22;11650;48.106;-1.696;2023-04-16T10:36:53;15.90;99.90
22968;DHT22;11650;48.106;-1.696;2023-04-16T10:39:23;16.20;99.90
22968;DHT22;11650;48.106;-1.696;2023-04-16T10:41:50;16.00;99.90
22968;DHT22;11650;48.106;-1.696;2023-04-16T10:44:17;16.00;99.90
22968;DHT22;11650;48.106;-1.696;2023-04-16T10:46:46;16.20;99.90
22968;DHT22;11650;48.106;-1.696;2023-04-16T10:49:23;16.60;99.90
22968;DHT22;11650;48.106;-1.696;2023-04-16T10:51:58;16.40;99.90
22968;DHT22;11650;48.106;-1.696;2023-04-16T10:54:30;16.40;99.90
22968;DHT22;11650;48.106;-1.696;2023-04-16T10:56:58;16.80;99.90
22968;DHT22;11650;48.106;-1.696;2023-04-16T10:59:24;17.30;99.90
22968;DHT22;11650;48.106;-1.696;2023-04-16T11:01:53;17.50;99.90
22968;DHT22;11650;48.106;-1.696;2023-04-16T11:10:04;17.90;99.90
22968;DHT22;11650;48.106;-1.696;2023-04-16T11:12:36;17.60;99.90
22968;DHT22;11650;48.106;-1.696;2023-04-16T11:15:10;18.00;99.90
22968;DHT22;11650;48.106;-1.696;2023-04-16T11:17:40;18.20;99.90
22968;DHT22;11650;48.106;-1.696;2023-04-16T11:20:20;18.00;99.90
22968;DHT22;11650;48.106;-1.696;2023-04-16T11:22:46;18.20;99.90
22968;DHT22;11650;48.106;-1.696;2023-04-16T11:25:14;18.20;99.90
22968;DHT22;11650;48.106;-1.696;2023-04-16T11:27:43;18.10;99.90
22968;DHT22;11650;48.106;-1.696;2023-04-16T11:30:09;17.50;99.90
22968;DHT22;11650;48.106;-1.696;2023-04-16T11:32:36;17.50;99.90
22968;DHT22;11650;48.106;-1.696;2023-04-16T11:35:04;17.80;99.90
22968;DHT22;11650;48.106;-1.696;2023-04-16T11:37:37;17.50;99.90
22968;DHT22;11650;48.106;-1.696;2023-04-16T11:40:04;18.00;99.90
22968;DHT22;11650;48.106;-1.696;2023-04-16T11:42:34;18.30;99.90
22968;DHT22;11650;48.106;-1.696;2023-04-16T11:45:06;18.50;99.90
22968;DHT22;11650;48.106;-1.696;2023-04-16T11:47:59;18.40;99.90
22968;DHT22;11650;48.106;-1.696;2023-04-16T11:50:26;18.60;99.90
22968;DHT22;11650;48.106;-1.696;2023-04-16T11:52:54;18.30;99.90
22968;DHT22;11650;48.106;-1.696;2023-04-16T11:55:21;17.80;99.90
22968;DHT22;11650;48.106;-1.696;2023-04-16T11:57:47;17.70;99.90
22968;DHT22;11650;48.106;-1.696;2023-04-16T12:00:13;17.60;99.90
22968;DHT22;11650;48.106;-1.696;2023-04-16T12:02:50;17.70;99.90
22968;DHT22;11650;48.106;-1.696;2023-04-16T12:07:58;18.20;99.90
22968;DHT22;11650;48.106;-1.696;2023-04-16T12:10:24;18.00;99.90
22968;DHT22;11650;48.106;-1.696;2023-04-16T12:12:50;17.50;99.90
22968;DHT22;11650;48.106;-1.696;2023-04-16T12:15:15;17.80;99.90
22968;DHT22;11650;48.106;-1.696;2023-04-16T12:17:41;17.90;99.90
22968;DHT22;11650;48.106;-1.696;2023-04-16T12:20:13;17.70;99.90
22968;DHT22;11650;48.106;-1.696;2023-04-16T12:22:45;18.00;99.90
22968;DHT22;11650;48.106;-1.696;2023-04-16T12:25:13;18.40;99.90
22968;DHT22;11650;48.106;-1.696;2023-04-16T12:27:50;18.40;99.90
22968;DHT22;11650;48.106;-1.696;2023-04-16T12:30:20;18.40;99.90
22968;DHT22;11650;48.106;-1.696;2023-04-16T12:32:48;19.00;99.90
22968;DHT22;11650;48.106;-1.696;2023-04-16T12:35:29;18.40;99.90
22968;DHT22;11650;48.106;-1.696;2023-04-16T12:37:55;18.80;99.90
22968;DHT22;11650;48.106;-1.696;2023-04-16T12:40:21;18.70;99.90
22968;DHT22;11650;48.106;-1.696;2023-04-16T12:42:47;18.90;99.90
22968;DHT22;11650;48.106;-1.696;2023-04-16T12:45:12;19.70;99.90
22968;DHT22;11650;48.106;-1.696;2023-04-16T12:47:38;20.80;99.90
22968;DHT22;11650;48.106;-1.696;2023-04-16T12:50:04;21.20;99.90
22968;DHT22;11650;48.106;-1.696;2023-04-16T12:52:30;20.90;99.90
22968;DHT22;11650;48.106;-1.696;2023-04-16T12:54:56;20.20;99.90
22968;DHT22;11650;48.106;-1.696;2023-04-16T12:57:21;19.80;99.90
22968;DHT22;11650;48.106;-1.696;2023-04-16T12:59:53;20.50;99.90
22968;DHT22;11650;48.106;-1.696;2023-04-16T13:02:19;20.00;99.90
22968;DHT22;11650;48.106;-1.696;2023-04-16T13:04:45;19.10;99.90
22968;DHT22;11650;48.106;-1.696;2023-04-16T13:07:10;19.30;99.90
22968;DHT22;11650;48.106;-1.696;2023-04-16T13:09:36;18.70;99.90
22968;DHT22;11650;48.106;-1.696;2023-04-16T13:12:02;18.30;99.90
22968;DHT22;11650;48.106;-1.696;2023-04-16T13:14:27;18.40;99.90
22968;DHT22;11650;48.106;-1.696;2023-04-16T13:16:53;18.90;99.90
22968;DHT22;11650;48.106;-1.696;2023-04-16T13:19:18;18.90;99.90
22968;DHT22;11650;48.106;-1.696;2023-04-16T13:21:45;19.80;99.90
22968;DHT22;11650;48.106;-1.696;2023-04-16T13:24:11;20.30;99.90
22968;DHT22;11650;48.106;-1.696;2023-04-16T13:26:36;20.70;99.90
22968;DHT22;11650;48.106;-1.696;2023-04-16T13:29:02;19.90;99.90
22968;DHT22;11650;48.106;-1.696;2023-04-16T13:31:28;19.60;99.90
22968;DHT22;11650;48.106;-1.696;2023-04-16T13:33:53;20.40;99.90
22968;DHT22;11650;48.106;-1.696;2023-04-16T13:36:19;20.60;99.90
22968;DHT22;11650;48.106;-1.696;2023-04-16T13:38:44;20.90;99.90
22968;DHT22;11650;48.106;-1.696;2023-04-16T13:41:10;21.50;99.90
22968;DHT22;11650;48.106;-1.696;2023-04-16T13:43:36;22.30;99.90
22968;DHT22;11650;48.106;-1.696;2023-04-16T13:46:02;23.00;99.90
22968;DHT22;11650;48.106;-1.696;2023-04-16T13:48:27;23.20;99.90
22968;DHT22;11650;48.106;-1.696;2023-04-16T13:50:53;23.40;99.90
22968;DHT22;11650;48.106;-1.696;2023-04-16T13:53:20;22.90;99.90
22968;DHT22;11650;48.106;-1.696;2023-04-16T13:55:46;22.80;99.90
22968;DHT22;11650;48.106;-1.696;2023-04-16T13:58:14;23.30;99.90
22968;DHT22;11650;48.106;-1.696;2023-04-16T14:00:41;23.50;99.90
22968;DHT22;11650;48.106;-1.696;2023-04-16T14:03:07;23.80;99.90
22968;DHT22;11650;48.106;-1.696;2023-04-16T14:05:32;24.50;99.90
22968;DHT22;11650;48.106;-1.696;2023-04-16T14:07:58;25.40;99.90
22968;DHT22;11650;48.106;-1.696;2023-04-16T14:10:24;25.00;99.90
22968;DHT22;11650;48.106;-1.696;2023-04-16T14:12:49;24.70;99.90
22968;DHT22;11650;48.106;-1.696;2023-04-16T14:15:15;24.80;99.90
22968;DHT22;11650;48.106;-1.696;2023-04-16T14:17:42;25.20;99.90
22968;DHT22;11650;48.106;-1.696;2023-04-16T14:20:10;25.00;99.90
22968;DHT22;11650;48.106;-1.696;2023-04-16T14:22:36;25.30;99.90
22968;DHT22;11650;48.106;-1.696;2023-04-16T14:25:01;24.90;99.90
22968;DHT22;11650;48.106;-1.696;2023-04-16T14:27:29;24.90;99.90
22968;DHT22;11650;48.106;-1.696;2023-04-16T14:29:54;26.10;99.90
22968;DHT22;11650;48.106;-1.696;2023-04-16T14:32:20;25.40;99.90
22968;DHT22;11650;48.106;-1.696;2023-04-16T14:34:46;26.40;99.90
22968;DHT22;11650;48.106;-1.696;2023-04-16T14:37:12;27.20;99.90
22968;DHT22;11650;48.106;-1.696;2023-04-16T14:39:37;26.40;99.90
22968;DHT22;11650;48.106;-1.696;2023-04-16T14:42:04;25.40;99.90
22968;DHT22;11650;48.106;-1.696;2023-04-16T14:44:31;25.60;99.90
22968;DHT22;11650;48.106;-1.696;2023-04-16T14:46:56;26.20;99.90
22968;DHT22;11650;48.106;-1.696;2023-04-16T14:49:22;26.10;99.90
22968;DHT22;11650;48.106;-1.696;2023-04-16T14:51:48;26.70;99.90
22968;DHT22;11650;48.106;-1.696;2023-04-16T14:54:14;27.40;99.90
22968;DHT22;11650;48.106;-1.696;2023-04-16T14:56:40;27.20;99.90
22968;DHT22;11650;48.106;-1.696;2023-04-16T14:59:06;26.60;99.90
22968;DHT22;11650;48.106;-1.696;2023-04-16T15:01:32;26.50;99.90
22968;DHT22;11650;48.106;-1.696;2023-04-16T15:03:58;27.20;99.90
22968;DHT22;11650;48.106;-1.696;2023-04-16T15:06:24;27.80;99.90
22968;DHT22;11650;48.106;-1.696;2023-04-16T15:08:50;28.30;98.90
22968;DHT22;11650;48.106;-1.696;2023-04-16T15:11:16;27.80;99.30
22968;DHT22;11650;48.106;-1.696;2023-04-16T15:13:41;27.90;98.40
22968;DHT22;11650;48.106;-1.696;2023-04-16T15:16:07;28.40;98.50
22968;DHT22;11650;48.106;-1.696;2023-04-16T15:18:33;29.20;97.60
22968;DHT22;11650;48.106;-1.696;2023-04-16T15:20:58;28.20;97.90
22968;DHT22;11650;48.106;-1.696;2023-04-16T15:23:24;28.40;98.10
22968;DHT22;11650;48.106;-1.696;2023-04-16T15:25:50;28.40;97.10
22968;DHT22;11650;48.106;-1.696;2023-04-16T15:28:15;27.70;97.80
22968;DHT22;11650;48.106;-1.696;2023-04-16T15:30:41;26.90;98.50